createdAt,value
2022-08-16T09:30:56.236Z,988.58
2022-08-16T09:31:57.411Z,988.49
2022-08-16T09:32:56.780Z,988.57
2022-08-16T09:33:56.693Z,988.63
2022-08-16T09:34:58.276Z,988.59
2022-08-16T09:35:57.352Z,988.56
2022-08-16T09:36:56.514Z,988.50
2022-08-16T09:38:01.073Z,988.54
2022-08-16T09:38:59.809Z,988.53
2022-08-16T09:39:56.337Z,988.57
2022-08-16T09:40:56.321Z,988.54
2022-08-16T09:41:57.411Z,988.54
2022-08-16T09:42:59.069Z,988.49
2022-08-16T09:43:59.943Z,988.56
2022-08-16T09:45:11.952Z,988.50
2022-08-16T09:45:55.964Z,988.48
2022-08-16T09:46:57.758Z,988.49
2022-08-16T09:47:57.795Z,988.48
2022-08-16T09:48:56.532Z,988.48
2022-08-16T09:49:56.127Z,988.47
2022-08-16T10:07:38.343Z,988.37
2022-08-16T10:08:31.173Z,988.30
2022-08-16T10:09:53.874Z,988.33
2022-08-16T10:10:31.327Z,988.29
2022-08-16T10:11:30.964Z,988.28
2022-08-16T10:12:30.938Z,988.27
2022-08-16T10:13:30.859Z,988.26
2022-08-16T10:14:32.919Z,988.28
2022-08-16T10:15:30.709Z,988.35
2022-08-16T10:16:30.652Z,988.35
2022-08-16T10:17:30.650Z,988.36
2022-08-16T10:18:56.361Z,988.37
2022-08-16T10:19:32.085Z,988.35
2022-08-16T10:20:30.417Z,988.33
2022-08-16T10:21:32.044Z,988.33
2022-08-16T10:22:30.291Z,988.42
2022-08-16T10:23:30.252Z,988.41
2022-08-16T10:24:31.733Z,988.31
2022-08-16T10:27:16.247Z,988.29
2022-08-16T10:27:28.929Z,988.30
2022-08-16T10:27:56.645Z,988.33
2022-08-16T10:28:40.172Z,988.34
2022-08-16T10:30:00.924Z,988.34
2022-08-16T10:30:39.128Z,988.35
2022-08-16T10:31:44.171Z,988.35
2022-08-16T10:32:36.155Z,988.33
2022-08-16T10:33:40.489Z,988.37
2022-08-16T10:34:36.032Z,988.30
2022-08-16T10:35:37.185Z,988.25
2022-08-16T10:36:39.405Z,988.30
2022-08-16T10:37:36.654Z,988.30
2022-08-16T10:38:37.104Z,988.26
2022-08-16T10:39:41.865Z,988.29
2022-08-16T10:40:35.706Z,988.27
2022-08-16T10:41:35.628Z,988.23
2022-08-16T10:42:35.542Z,988.23
2022-08-16T10:43:35.519Z,988.20
2022-08-16T10:44:35.432Z,988.23
2022-08-16T10:45:37.061Z,988.20
2022-08-16T10:46:40.715Z,988.17
2022-08-16T10:47:38.688Z,988.15
2022-08-16T10:48:35.222Z,988.21
